Time;durP1;ratioP1;P1;durP2;ratioP2;P2;SDS_P1;SDS_P2;PMS_P1;PMS_P2;Temp;Humidity;BMP_temperature;BMP_pressure;BME280_temperature;BME280_humidity;BME280_pressure;Samples;Min_cycle;Max_cycle;Signal;HPM_P1;HPM_P2
2023/12/16 00:00:54;;;;;;;3.47;2.67;;;3.60;99.90;;;3.31;77.01;95851.00;5057428;28;20496;-59
2023/12/16 00:03:21;;;;;;;2.67;2.30;;;3.60;99.90;;;3.32;77.59;95842.31;5062302;28;21036;-59
2023/12/16 00:05:48;;;;;;;2.63;2.43;;;3.60;99.90;;;3.33;76.68;95841.38;5062877;28;20456;-58
2023/12/16 00:08:16;;;;;;;3.60;3.13;;;3.70;99.90;;;3.35;76.72;95836.97;5061501;28;20472;-60
2023/12/16 00:10:43;;;;;;;2.63;2.43;;;3.70;99.90;;;3.36;76.86;95849.03;5057755;28;20808;-60
2023/12/16 00:13:12;;;;;;;2.60;2.40;;;3.70;99.90;;;3.36;76.83;95849.91;5063140;28;20489;-61
2023/12/16 00:15:39;;;;;;;2.40;2.27;;;3.70;99.90;;;3.38;76.67;95863.66;5064324;28;21008;-61
2023/12/16 00:18:06;;;;;;;4.13;1.70;;;3.70;99.90;;;3.38;76.28;95858.47;5058242;28;20537;-60
2023/12/16 00:20:34;;;;;;;2.00;1.90;;;3.70;99.90;;;3.37;76.45;95861.13;5062058;28;20457;-60
2023/12/16 00:23:01;;;;;;;2.00;1.90;;;3.70;99.90;;;3.37;76.44;95861.97;5063956;28;20475;-61
2023/12/16 00:25:29;;;;;;;1.70;1.60;;;3.70;99.90;;;3.38;76.73;95873.22;5058085;28;20513;-58
2023/12/16 00:27:56;;;;;;;1.50;1.30;;;3.70;99.90;;;3.37;76.68;95874.13;5062056;28;20528;-61
2023/12/16 00:30:25;;;;;;;6.30;1.40;;;3.70;99.90;;;3.37;76.38;95871.53;5063907;28;20459;-60
2023/12/16 00:32:52;;;;;;;1.73;1.63;;;3.70;99.90;;;3.37;76.97;95874.13;5063048;28;20868;-60
2023/12/16 00:35:20;;;;;;;1.63;1.53;;;3.70;99.90;;;3.38;76.80;95878.44;5062407;28;20458;-60
2023/12/16 00:37:47;;;;;;;1.43;1.33;;;3.70;99.90;;;3.36;76.95;95881.09;5060922;28;20471;-59
2023/12/16 00:40:15;;;;;;;1.80;1.70;;;3.70;99.90;;;3.34;77.05;95882.06;5063202;28;20455;-60
2023/12/16 00:42:42;;;;;;;1.70;1.60;;;3.70;99.90;;;3.34;76.91;95887.28;5062127;28;20504;-61
2023/12/16 00:45:10;;;;;;;2.30;2.10;;;3.70;99.90;;;3.33;77.22;95890.78;5060569;28;20972;-62
2023/12/16 00:47:39;;;;;;;2.50;2.40;;;3.70;99.90;;;3.32;77.04;95892.53;5062652;28;20979;-61
2023/12/16 00:50:08;;;;;;;4.27;2.90;;;3.70;99.90;;;3.30;77.19;95896.13;5062761;28;20450;-61
2023/12/16 00:52:36;;;;;;;2.80;2.60;;;3.60;99.90;;;3.27;77.40;95898.84;5060658;28;20840;-61
2023/12/16 00:55:03;;;;;;;2.80;2.60;;;3.60;99.90;;;3.22;77.34;95905.13;5062644;28;20458;-61
2023/12/16 00:57:31;;;;;;;2.70;2.50;;;3.60;99.90;;;3.18;77.18;95906.16;5062924;28;20566;-59
2023/12/16 00:59:58;;;;;;;2.40;2.30;;;3.50;99.90;;;3.15;77.29;95906.31;5060602;28;20459;-61
2023/12/16 01:02:25;;;;;;;2.23;2.10;;;3.50;99.90;;;3.13;77.17;95912.47;5062205;28;20503;-61
2023/12/16 01:04:54;;;;;;;1.60;1.50;;;3.50;99.90;;;3.10;77.57;95913.47;5062656;28;20543;-60
2023/12/16 01:07:21;;;;;;;1.87;1.77;;;3.50;99.90;;;3.09;77.76;95916.16;5060210;28;20476;-59
2023/12/16 01:09:50;;;;;;;1.97;1.87;;;3.40;99.90;;;3.06;77.07;95909.31;5061792;28;20443;-60
2023/12/16 01:12:18;;;;;;;2.00;1.90;;;3.40;99.90;;;3.02;77.87;95915.56;5062601;28;20524;-59
2023/12/16 01:14:45;;;;;;;1.60;1.50;;;3.40;99.90;;;3.00;78.47;95913.03;5054997;28;20444;-62
2023/12/16 01:17:12;;;;;;;1.83;1.73;;;3.40;99.90;;;2.98;77.62;95922.66;5061382;28;20502;-61
2023/12/16 01:19:40;;;;;;;2.57;2.37;;;3.30;99.90;;;2.98;78.52;95922.66;5062526;28;20479;-61
2023/12/16 01:22:08;;;;;;;1.53;1.43;;;3.30;99.90;;;2.97;78.07;95923.56;5059560;28;20537;-60
2023/12/16 01:24:37;;;;;;;1.40;1.30;;;3.30;99.90;;;2.97;77.47;95918.34;5061256;28;20451;-62
2023/12/16 01:27:05;;;;;;;1.40;1.30;;;3.30;99.90;;;2.93;78.32;95921.16;5062977;28;20463;-59
2023/12/16 01:29:32;;;;;;;1.60;1.50;;;3.30;99.90;;;2.91;78.21;95922.97;5056652;28;20483;-62
2023/12/16 01:31:59;;;;;;;1.30;1.20;;;3.30;99.90;;;2.93;77.86;95926.34;5061031;28;20556;-60
2023/12/16 01:34:27;;;;;;;1.80;1.70;;;3.20;99.90;;;2.91;78.24;95928.19;5062657;28;20504;-62
2023/12/16 01:36:54;;;;;;;1.57;1.40;;;3.30;99.90;;;2.89;78.25;95932.63;5059976;28;20980;-60
2023/12/16 01:39:23;;;;;;;1.73;1.30;;;3.20;99.90;;;2.89;78.59;95927.41;5060886;28;20453;-62
2023/12/16 01:41:50;;;;;;;1.57;1.47;;;3.20;99.90;;;2.87;78.19;95930.09;5062249;28;20540;-60
2023/12/16 01:44:17;;;;;;;1.53;1.43;;;3.20;99.90;;;2.89;78.53;95927.41;5062223;28;20451;-60
2023/12/16 01:46:44;;;;;;;1.33;1.23;;;3.20;99.90;;;2.91;78.12;95941.19;5061404;28;20455;-60
2023/12/16 01:49:12;;;;;;;1.53;1.43;;;3.20;99.90;;;2.93;78.48;95934.16;5060776;28;20799;-60
2023/12/16 01:51:39;;;;;;;2.37;1.77;;;3.20;99.90;;;2.94;78.93;95935.84;5062072;28;20880;-60
2023/12/16 01:54:07;;;;;;;2.63;1.10;;;3.30;99.90;;;2.92;78.23;95935.91;5060870;28;20447;-62
2023/12/16 01:56:37;;;;;;;1.10;1.00;;;3.20;99.90;;;2.91;78.50;95946.38;5059078;28;20968;-60
2023/12/16 01:59:05;;;;;;;1.33;1.23;;;3.30;99.90;;;2.91;78.09;95946.38;5061164;28;20985;-60
2023/12/16 02:01:32;;;;;;;1.47;1.37;;;3.30;99.90;;;2.91;77.97;95947.19;5061046;28;20520;-61
2023/12/16 02:03:59;;;;;;;1.80;1.70;;;3.20;99.90;;;2.94;78.71;95948.84;5059036;28;20487;-62
2023/12/16 02:06:27;;;;;;;1.40;1.30;;;3.30;99.90;;;2.95;78.16;95950.53;5061176;28;20915;-61
2023/12/16 02:08:54;;;;;;;1.47;1.30;;;3.30;99.90;;;2.97;78.33;95957.34;5060872;28;20990;-61
2023/12/16 02:11:21;;;;;;;1.50;1.23;;;3.30;99.90;;;3.00;78.30;95958.97;5059045;28;20471;-60
2023/12/16 02:13:51;;;;;;;1.40;1.30;;;3.30;99.90;;;2.99;78.20;95954.66;5060816;28;20479;-61
2023/12/16 02:16:18;;;;;;;2.17;1.60;;;3.30;99.90;;;2.97;77.87;95952.13;5061087;28;20443;-61
2023/12/16 02:18:45;;;;;;;1.50;1.40;;;3.30;99.90;;;2.96;78.09;95960.88;5058445;28;20478;-60
2023/12/16 02:21:12;;;;;;;1.50;1.40;;;3.30;99.90;;;2.96;77.80;95957.41;5060732;28;20509;-59
2023/12/16 02:23:41;;;;;;;1.60;1.50;;;3.30;99.90;;;2.93;78.47;95966.19;5060890;28;20571;-61
2023/12/16 02:26:08;;;;;;;3.27;1.67;;;3.30;99.90;;;2.95;78.00;95958.34;5058565;28;20522;-60
2023/12/16 02:28:36;;;;;;;1.60;1.50;;;3.30;99.90;;;2.99;78.71;95965.06;5060359;28;21021;-61
2023/12/16 02:31:04;;;;;;;1.80;1.70;;;3.30;99.90;;;3.03;78.63;95964.03;5060712;28;20498;-60
2023/12/16 02:33:31;;;;;;;1.80;1.70;;;3.30;99.90;;;3.09;78.35;95968.97;5058740;28;21007;-60
2023/12/16 02:36:00;;;;;;;1.80;1.70;;;3.30;99.90;;;3.15;77.91;95981.69;5060818;28;20451;-61
2023/12/16 02:38:27;;;;;;;2.03;1.93;;;3.40;99.90;;;3.17;77.69;95990.25;5060786;28;20471;-60
2023/12/16 02:40:56;;;;;;;2.10;1.93;;;3.40;99.90;;;3.17;77.54;95992.03;5054884;28;20455;-60
2023/12/16 02:43:23;;;;;;;2.33;2.17;;;3.40;99.90;;;3.13;77.67;95988.72;5059435;28;20556;-60
2023/12/16 02:45:51;;;;;;;2.90;1.60;;;3.40;99.90;;;3.13;77.85;95987.84;5061085;28;20532;-61
2023/12/16 02:48:18;;;;;;;2.27;2.17;;;3.40;99.90;;;3.13;77.32;95993.91;5054476;28;20494;-59
2023/12/16 02:50:45;;;;;;;1.80;1.70;;;3.40;99.90;;;3.14;77.67;95992.16;5059883;28;20451;-61
2023/12/16 02:53:13;;;;;;;2.00;1.80;;;3.40;99.90;;;3.14;77.77;96000.78;5060967;28;20578;-60
2023/12/16 02:55:40;;;;;;;1.70;1.60;;;3.40;99.90;;;3.18;78.05;96001.53;5060759;28;20447;-59
2023/12/16 02:58:09;;;;;;;1.80;1.70;;;3.40;99.90;;;3.19;78.07;96003.19;5059412;28;20472;-61
2023/12/16 03:00:36;;;;;;;1.90;1.80;;;3.50;99.90;;;3.21;77.40;96006.59;5057760;28;20455;-59
2023/12/16 03:03:04;;;;;;;2.90;1.57;;;3.50;99.90;;;3.21;76.99;96007.41;5054652;28;20553;-61
2023/12/16 03:05:31;;;;;;;2.33;2.13;;;3.50;99.90;;;3.20;76.74;96010.91;5059483;28;20458;-60
2023/12/16 03:07:58;;;;;;;2.47;2.17;;;3.50;99.90;;;3.23;77.53;96013.38;5060680;28;20529;-59
2023/12/16 03:10:25;;;;;;;2.53;2.17;;;3.50;99.90;;;3.27;77.05;96014.13;5057298;28;20447;-61
2023/12/16 03:12:53;;;;;;;2.20;2.00;;;3.50;99.90;;;3.29;77.05;96014.06;5059624;28;20572;-62
2023/12/16 03:15:21;;;;;;;1.83;1.73;;;3.60;99.90;;;3.29;76.54;96016.66;5057866;28;20459;-61
2023/12/16 03:17:49;;;;;;;1.93;1.43;;;3.50;99.90;;;3.30;76.24;96015.72;5056967;28;20995;-61
2023/12/16 03:20:16;;;;;;;2.20;1.40;;;3.60;99.90;;;3.31;76.31;96014.81;5059196;28;20460;-60
2023/12/16 03:22:44;;;;;;;1.13;1.03;;;3.60;99.90;;;3.32;75.93;96014.75;5057708;28;20496;-59
2023/12/16 03:25:11;;;;;;;0.80;0.67;;;3.60;99.90;;;3.33;74.49;96007.78;5054811;28;20955;-62
2023/12/16 03:27:38;;;;;;;1.10;0.83;;;3.60;99.90;;;3.34;74.01;96017.28;5059849;28;20983;-60
2023/12/16 03:30:08;;;;;;;0.90;0.60;;;3.60;99.90;;;3.33;74.14;96016.44;5061542;28;20461;-62
2023/12/16 03:32:37;;;;;;;0.80;0.60;;;3.60;99.90;;;3.32;73.86;96019.13;5056370;28;20468;-61
2023/12/16 03:35:05;;;;;;;0.90;0.60;;;3.60;99.90;;;3.31;73.09;96026.06;5058896;28;20976;-58
2023/12/16 03:37:33;;;;;;;0.80;0.50;;;3.60;99.90;;;3.31;72.17;96038.22;5061580;28;20474;-60
2023/12/16 03:40:00;;;;;;;0.70;0.40;;;3.60;99.90;;;3.29;71.97;96037.44;5062954;28;20507;-61
2023/12/16 03:42:27;;;;;;;0.70;0.50;;;3.60;99.90;;;3.27;72.38;96039.25;5062552;28;20666;-61
2023/12/16 03:44:54;;;;;;;0.80;0.60;;;3.50;99.90;;;3.27;71.51;96039.25;5064673;28;20457;-62
2023/12/16 03:47:22;;;;;;;0.70;0.50;;;3.50;99.90;;;3.23;70.51;96047.19;5062893;28;20471;-62
2023/12/16 03:49:50;;;;;;;7.50;4.90;;;3.50;99.90;;;3.21;70.12;96049.00;5062307;28;20456;-58
2023/12/16 03:52:18;;;;;;;1.53;1.37;;;3.50;99.90;;;3.19;70.31;96050.84;5064620;28;20573;-61
2023/12/16 03:54:46;;;;;;;1.67;1.37;;;3.50;99.90;;;3.18;69.71;96049.16;5062581;28;20455;-60
2023/12/16 03:57:13;;;;;;;0.80;0.60;;;3.40;99.90;;;3.17;70.29;96052.66;5062454;28;20566;-62
2023/12/16 03:59:40;;;;;;;12.43;6.70;;;3.40;99.90;;;3.17;71.06;96052.66;5064181;28;20964;-61
2023/12/16 04:02:07;;;;;;;3.20;1.60;;;3.40;99.90;;;3.17;70.35;96063.03;5062284;28;20498;-62
2023/12/16 04:04:35;;;;;;;0.80;0.70;;;3.40;99.90;;;3.17;70.58;96065.63;5062210;28;20513;-60
2023/12/16 04:07:04;;;;;;;0.80;0.50;;;3.40;99.90;;;3.17;69.82;96068.25;5064143;28;20474;-61
2023/12/16 04:09:31;;;;;;;0.70;0.50;;;3.40;99.90;;;3.17;69.59;96070.00;5062348;28;20471;-60
2023/12/16 04:11:58;;;;;;;0.70;0.50;;;3.40;99.90;;;3.15;68.88;96080.47;5061782;28;20584;-61
2023/12/16 04:14:26;;;;;;;0.70;0.50;;;3.40;99.90;;;3.15;68.14;96084.84;5064341;28;20496;-61
2023/12/16 04:16:53;;;;;;;0.70;0.50;;;3.40;99.90;;;3.15;69.56;96090.88;5062456;28;20471;-61
2023/12/16 04:19:21;;;;;;;0.70;0.50;;;3.40;99.90;;;3.15;68.80;96083.06;5061589;28;20448;-59
2023/12/16 04:21:48;;;;;;;0.80;0.50;;;3.40;99.90;;;3.16;69.81;96084.78;5064128;28;20455;-59
2023/12/16 04:24:16;;;;;;;0.70;0.50;;;3.40;99.90;;;3.15;68.51;96095.22;5061961;28;20521;-61
2023/12/16 04:26:44;;;;;;;0.80;0.50;;;3.40;99.90;;;3.13;68.21;96081.44;5061511;28;20448;-61
2023/12/16 04:29:11;;;;;;;1.67;0.60;;;3.40;99.90;;;3.12;69.02;96084.97;5064097;28;20459;-62
2023/12/16 04:31:38;;;;;;;0.70;0.40;;;3.40;99.90;;;3.13;69.22;96084.91;5062353;28;20533;-59
2023/12/16 04:34:06;;;;;;;0.90;0.63;;;3.40;99.90;;;3.14;67.68;96086.56;5061132;28;20479;-60
2023/12/16 04:36:33;;;;;;;0.73;0.50;;;3.40;99.90;;;3.15;68.50;96090.03;5063747;28;20450;-60
2023/12/16 04:39:00;;;;;;;0.80;0.70;;;3.40;99.90;;;3.16;69.30;96087.38;5062051;28;20526;-60
2023/12/16 04:41:29;;;;;;;0.70;0.50;;;3.40;99.90;;;3.15;68.95;96088.28;5061206;28;20451;-61
2023/12/16 04:43:56;;;;;;;0.70;0.43;;;3.40;99.90;;;3.15;68.13;96090.88;5060389;28;20487;-61
2023/12/16 04:46:23;;;;;;;0.90;0.53;;;3.40;99.90;;;3.13;67.93;96092.69;5062342;28;20446;-59
2023/12/16 04:48:51;;;;;;;0.90;0.50;;;3.40;99.90;;;3.12;68.26;96097.97;5062897;28;20474;-59
2023/12/16 04:51:18;;;;;;;0.70;0.50;;;3.40;99.90;;;3.10;68.62;96103.22;5060460;28;20548;-61
2023/12/16 04:53:45;;;;;;;6.97;5.30;;;3.40;99.90;;;3.07;68.21;96100.75;5061755;28;20467;-60
2023/12/16 04:56:13;;;;;;;1.27;1.17;;;3.30;99.90;;;3.05;67.58;96113.81;5063136;28;20454;-61
2023/12/16 04:58:41;;;;;;;0.70;0.60;;;3.40;99.90;;;3.03;66.95;96109.56;5060128;28;20529;-62
2023/12/16 05:01:09;;;;;;;0.80;0.60;;;3.30;99.90;;;3.02;67.56;96118.25;5061343;28;20455;-61
2023/12/16 05:03:36;;;;;;;0.80;0.50;;;3.30;99.90;;;2.99;67.79;96114.06;5062259;28;20514;-61
2023/12/16 05:06:04;;;;;;;0.80;0.77;;;3.30;99.90;;;2.97;68.06;96109.81;5056535;28;20447;-61
2023/12/16 05:08:31;;;;;;;0.90;0.80;;;3.30;99.90;;;2.95;67.87;96109.88;5061889;28;20474;-59
2023/12/16 05:10:58;;;;;;;1.10;0.80;;;3.20;99.90;;;2.94;67.71;96117.75;5062932;28;21182;-61
2023/12/16 05:13:25;;;;;;;0.80;0.63;;;3.20;99.90;;;2.92;67.31;96127.38;5060221;28;20508;-62
2023/12/16 05:15:54;;;;;;;0.80;0.80;;;3.20;99.90;;;2.91;67.20;96130.84;5061789;28;20872;-62
2023/12/16 05:18:21;;;;;;;1.07;0.90;;;3.20;99.90;;;2.90;67.65;96132.63;5062534;28;20470;-61
2023/12/16 05:20:49;;;;;;;0.77;0.57;;;3.20;99.90;;;2.92;67.50;96124.75;5062556;28;20450;-60
2023/12/16 05:23:16;;;;;;;0.80;0.60;;;3.20;99.90;;;2.93;67.66;96142.03;5061037;28;20991;-62
2023/12/16 05:25:44;;;;;;;1.00;0.50;;;3.20;99.90;;;2.93;67.59;96139.44;5060569;28;20455;-59
2023/12/16 05:28:11;;;;;;;0.80;0.57;;;3.20;99.90;;;2.93;67.53;96152.41;5060170;28;20480;-62
2023/12/16 05:30:39;;;;;;;0.90;0.50;;;3.20;99.90;;;2.92;67.70;96158.53;5061242;28;20454;-60
2023/12/16 05:33:07;;;;;;;0.73;0.50;;;3.20;99.90;;;2.91;67.50;96149.06;5061521;28;20470;-61
2023/12/16 05:35:34;;;;;;;0.80;0.50;;;3.20;99.90;;;2.89;67.60;96156.06;5056347;28;20452;-60
2023/12/16 05:38:02;;;;;;;0.80;0.67;;;3.20;99.90;;;2.88;67.43;96152.59;5061025;28;20995;-61
2023/12/16 05:40:29;;;;;;;0.80;0.60;;;3.20;99.90;;;2.92;68.08;96172.38;5062862;28;20549;-60
2023/12/16 05:42:56;;;;;;;0.90;0.70;;;3.20;99.90;;;2.96;67.67;96167.88;5056548;28;20495;-60
2023/12/16 05:45:24;;;;;;;0.80;0.70;;;3.20;99.90;;;2.98;67.60;96173.91;5061250;28;20477;-61
2023/12/16 05:47:51;;;;;;;1.43;1.20;;;3.20;99.90;;;2.99;67.19;96166.03;5062024;28;20474;-60
2023/12/16 05:50:20;;;;;;;0.80;0.60;;;3.30;99.90;;;3.02;67.38;96167.66;5059040;28;20447;-61
2023/12/16 05:52:47;;;;;;;1.90;0.80;;;3.30;99.90;;;3.02;67.48;96163.31;5061191;28;20459;-60
2023/12/16 05:55:14;;;;;;;2.30;0.60;;;3.30;99.90;;;3.04;66.43;96164.09;5059738;28;20455;-61
2023/12/16 05:57:42;;;;;;;0.70;0.50;;;3.30;99.90;;;3.04;66.79;96168.44;5056565;28;20480;-60
2023/12/16 06:00:10;;;;;;;0.97;0.87;;;3.30;99.90;;;3.03;66.46;96166.75;5060255;28;20878;-62
2023/12/16 06:02:38;;;;;;;0.90;0.70;;;3.30;99.90;;;3.05;66.56;96162.31;5061320;28;20514;-60
2023/12/16 06:05:07;;;;;;;1.80;1.70;;;3.30;99.90;;;3.06;66.98;96169.22;5059176;28;20456;-61
2023/12/16 06:07:36;;;;;;;2.90;0.60;;;3.30;99.90;;;3.06;66.91;96171.81;5060183;28;20476;-62
2023/12/16 06:10:04;;;;;;;1.27;0.70;;;3.30;99.90;;;3.06;66.43;96179.63;5062202;28;20447;-62
2023/12/16 06:12:31;;;;;;;0.90;0.80;;;3.30;99.90;;;3.07;66.90;96186.53;5059855;28;20511;-61
2023/12/16 06:14:58;;;;;;;0.80;0.60;;;3.30;99.90;;;3.07;66.58;96191.72;5059852;28;20452;-60
2023/12/16 06:17:26;;;;;;;1.27;0.60;;;3.30;99.90;;;3.06;66.79;96184.81;5061706;28;20467;-60
2023/12/16 06:19:53;;;;;;;1.57;1.00;;;3.40;99.90;;;3.08;67.01;96206.38;5059979;28;20443;-62
2023/12/16 06:22:20;;;;;;;0.80;0.70;;;3.40;99.90;;;3.10;66.74;96209.78;5059491;28;20472;-62
2023/12/16 06:24:49;;;;;;;0.90;0.70;;;3.40;99.90;;;3.10;66.28;96207.19;5061532;28;20447;-61
2023/12/16 06:27:16;;;;;;;1.00;0.90;;;3.40;99.90;;;3.12;66.93;96215.75;5059997;28;20467;-60
2023/12/16 06:29:44;;;;;;;1.03;0.93;;;3.40;99.90;;;3.11;66.72;96211.47;5059699;28;20953;-62
2023/12/16 06:32:11;;;;;;;1.00;0.90;;;3.40;99.90;;;3.14;67.32;96220.91;5057262;28;20487;-61
2023/12/16 06:34:38;;;;;;;1.37;1.27;;;3.40;99.90;;;3.18;67.65;96220.72;5060542;28;20978;-62
2023/12/16 06:37:06;;;;;;;2.10;1.37;;;3.40;99.90;;;3.23;67.12;96229.19;5060588;28;20536;-61
2023/12/16 06:39:33;;;;;;;4.13;1.80;;;3.50;99.90;;;3.29;68.14;96232.47;5061764;28;20461;-61
2023/12/16 06:42:02;;;;;;;2.90;2.10;;;3.50;99.90;;;3.33;67.50;96234.00;5059064;28;20936;-62
2023/12/16 06:44:29;;;;;;;2.77;2.47;;;3.60;99.90;;;3.36;68.08;96241.69;5059019;28;20511;-62
2023/12/16 06:46:56;;;;;;;3.50;3.07;;;3.60;99.90;;;3.37;67.64;96235.59;5060951;28;20475;-62
2023/12/16 06:49:24;;;;;;;3.73;3.20;;;3.70;99.90;;;3.37;67.98;96246.81;5059166;28;20451;-61
2023/12/16 06:51:51;;;;;;;5.37;4.00;;;3.70;99.90;;;3.40;67.54;96261.47;5058424;28;20530;-60
2023/12/16 06:54:19;;;;;;;16.93;9.83;;;3.70;99.90;;;3.44;67.99;96262.19;5057043;28;20460;-61
2023/12/16 06:56:46;;;;;;;3.20;2.90;;;3.70;99.90;;;3.44;67.29;96268.25;5059156;28;20452;-60
2023/12/16 06:59:14;;;;;;;3.57;3.27;;;3.70;99.90;;;3.41;67.59;96268.38;5058418;28;21043;-61
2023/12/16 07:01:42;;;;;;;7.50;2.67;;;3.70;99.90;;;3.35;68.53;96276.41;5060539;28;20451;-61
2023/12/16 07:04:09;;;;;;;2.60;2.30;;;3.70;99.90;;;3.27;68.35;96281.91;5057781;28;20491;-62
2023/12/16 07:06:37;;;;;;;2.60;2.17;;;3.60;99.90;;;3.20;68.48;96286.50;5058371;28;20452;-62
2023/12/16 07:09:04;;;;;;;3.10;2.23;;;3.60;99.90;;;3.14;69.42;96291.94;5060579;28;20454;-61
2023/12/16 07:11:34;;;;;;;2.30;2.20;;;3.50;99.90;;;3.09;69.53;96304.25;5058867;28;20474;-62
2023/12/16 07:14:01;;;;;;;2.20;2.00;;;3.50;99.90;;;3.04;70.17;96301.84;5057974;28;20988;-62
2023/12/16 07:16:31;;;;;;;1.50;1.23;;;3.40;99.90;;;3.01;69.97;96301.13;5054382;28;20937;-61
2023/12/16 07:18:58;;;;;;;1.73;1.60;;;3.40;99.90;;;2.99;70.31;96314.19;5059207;28;20447;-61
2023/12/16 07:21:27;;;;;;;1.83;1.73;;;3.40;99.90;;;3.01;70.44;96321.91;5060543;28;20533;-60
2023/12/16 07:23:54;;;;;;;1.93;1.80;;;3.30;99.90;;;3.02;70.51;96326.19;5058443;28;20837;-60
2023/12/16 07:26:21;;;;;;;1.53;1.20;;;3.40;99.90;;;3.01;70.97;96322.75;5059017;28;20498;-61
2023/12/16 07:28:50;;;;;;;1.90;1.60;;;3.30;99.90;;;3.01;70.71;96321.91;5061005;28;20540;-61
2023/12/16 07:31:17;;;;;;;13.73;2.07;;;3.40;99.90;;;3.01;71.30;96316.72;5058005;28;20517;-61
2023/12/16 07:33:45;;;;;;;2.37;1.80;;;3.40;99.90;;;3.00;71.13;96322.81;5058165;28;20468;-61
2023/12/16 07:36:13;;;;;;;1.57;1.30;;;3.30;99.90;;;2.99;70.88;96319.38;5060745;28;20789;-61
2023/12/16 07:38:40;;;;;;;3.40;2.67;;;3.30;99.90;;;3.00;71.32;96326.25;5058502;28;21064;-61
2023/12/16 07:41:08;;;;;;;1.53;1.43;;;3.30;99.90;;;3.00;71.85;96328.00;5061790;28;20476;-61
2023/12/16 07:43:35;;;;;;;2.90;2.43;;;3.30;99.90;;;3.00;72.30;96330.59;5057939;28;20531;-61
2023/12/16 07:46:03;;;;;;;3.70;2.80;;;3.30;99.90;;;3.01;72.06;96340.94;5059895;28;20446;-60
2023/12/16 07:48:30;;;;;;;5.03;2.37;;;3.30;99.90;;;3.05;71.90;96346.88;5059667;28;20471;-61
2023/12/16 07:50:59;;;;;;;1.77;1.67;;;3.40;99.90;;;3.03;72.10;96335.69;5057468;28;20929;-62
2023/12/16 07:53:26;;;;;;;2.17;1.60;;;3.30;99.90;;;3.00;72.24;96334.03;5061308;28;20514;-62
2023/12/16 07:55:53;;;;;;;4.57;1.60;;;3.40;99.90;;;2.98;72.14;96330.66;5058601;28;20513;-62
2023/12/16 07:58:21;;;;;;;1.30;1.20;;;3.30;99.90;;;2.99;72.64;96340.16;5060403;28;20520;-61
2023/12/16 08:00:48;;;;;;;1.63;1.40;;;3.30;99.90;;;2.98;72.41;96350.63;5058658;28;21026;-61
2023/12/16 08:03:15;;;;;;;2.93;1.37;;;3.30;99.90;;;2.95;72.60;96345.53;5056541;28;20503;-62
2023/12/16 08:05:42;;;;;;;3.37;1.70;;;3.30;99.90;;;2.92;72.79;96354.28;5060103;28;20455;-62
2023/12/16 08:08:11;;;;;;;1.40;1.30;;;3.30;99.90;;;2.91;72.89;96367.31;5058675;28;20590;-61
2023/12/16 08:10:38;;;;;;;1.57;1.47;;;3.30;99.90;;;2.87;73.19;96371.81;5058063;28;20517;-61
2023/12/16 08:13:06;;;;;;;3.87;2.00;;;3.20;99.90;;;2.85;74.13;96364.06;5060113;28;20486;-60
2023/12/16 08:15:34;;;;;;;2.30;1.20;;;3.20;99.90;;;2.85;73.57;96365.78;5058250;28;20535;-62
2023/12/16 08:18:01;;;;;;;1.30;0.93;;;3.20;99.90;;;2.83;72.98;96372.81;5057881;28;20463;-61
2023/12/16 08:20:28;;;;;;;1.77;1.50;;;3.20;99.90;;;2.79;73.14;96374.69;5060366;28;20971;-61
2023/12/16 08:22:56;;;;;;;1.50;1.40;;;3.20;99.90;;;2.76;73.87;96372.19;5058533;28;21032;-60
2023/12/16 08:25:25;;;;;;;1.60;1.40;;;3.10;99.90;;;2.75;73.24;96380.88;5061622;28;20940;-61
2023/12/16 08:27:52;;;;;;;10.90;5.63;;;3.20;99.90;;;2.74;74.22;96383.53;5064116;28;20871;-61
2023/12/16 08:30:21;;;;;;;7.80;4.33;;;3.10;99.90;;;2.73;74.19;96392.22;5062009;28;20454;-62
2023/12/16 08:32:48;;;;;;;1.80;1.70;;;3.10;99.90;;;2.72;74.25;96388.78;5060442;28;20463;-61
2023/12/16 08:35:16;;;;;;;1.90;1.80;;;3.10;99.90;;;2.73;74.42;96387.00;5060751;28;20548;-61
2023/12/16 08:37:43;;;;;;;2.60;1.73;;;3.10;99.90;;;2.81;74.99;96388.44;5062218;28;21013;-63
2023/12/16 08:40:12;;;;;;;2.83;2.70;;;3.20;99.90;;;2.89;74.21;96387.34;5063158;28;20477;-60
2023/12/16 08:42:42;;;;;;;2.37;1.60;;;3.20;99.90;;;2.92;74.27;96388.06;5057096;28;20464;-58
2023/12/16 08:45:11;;;;;;;1.40;1.30;;;3.20;99.90;;;2.95;74.24;96394.91;5061426;28;20491;-61
2023/12/16 08:47:38;;;;;;;2.53;2.20;;;3.30;99.90;;;2.97;73.94;96383.53;5063335;28;20516;-61
2023/12/16 08:50:07;;;;;;;2.97;1.97;;;3.30;99.90;;;2.99;74.54;96380.88;5061345;28;20497;-60
2023/12/16 08:52:35;;;;;;;2.20;2.03;;;3.30;99.90;;;3.03;73.83;96379.88;5061134;28;20811;-61
2023/12/16 08:55:02;;;;;;;2.43;2.13;;;3.30;99.90;;;3.05;73.51;96380.66;5063501;28;20451;-60
2023/12/16 08:57:29;;;;;;;3.10;2.40;;;3.40;99.90;;;3.06;74.37;96382.38;5061694;28;20471;-62
2023/12/16 08:59:58;;;;;;;2.10;2.00;;;3.40;99.90;;;3.08;74.25;96385.75;5064621;28;20874;-61
2023/12/16 09:02:26;;;;;;;2.17;2.07;;;3.40;99.90;;;3.09;73.93;96387.44;5059642;28;20553;-60
2023/12/16 09:04:53;;;;;;;2.53;2.33;;;3.40;99.90;;;3.12;74.49;96379.53;5062245;28;20486;-61
2023/12/16 09:07:21;;;;;;;2.43;2.23;;;3.40;99.90;;;3.14;74.21;96376.88;5062877;28;20471;-61
2023/12/16 09:09:48;;;;;;;2.60;2.40;;;3.50;99.90;;;3.16;73.46;96375.06;5060609;28;20455;-61
2023/12/16 09:12:15;;;;;;;2.00;1.90;;;3.50;99.90;;;3.17;73.55;96374.16;5061927;28;20486;-60
2023/12/16 09:14:43;;;;;;;4.13;2.10;;;3.50;99.90;;;3.17;73.52;96369.81;5062353;28;20443;-60
2023/12/16 09:17:11;;;;;;;4.30;2.40;;;3.50;99.90;;;3.17;73.84;96359.41;5059704;28;20476;-61
2023/12/16 09:19:39;;;;;;;3.40;2.83;;;3.50;99.90;;;3.18;73.94;96362.88;5061749;28;20859;-60
2023/12/16 09:22:06;;;;;;;3.00;2.67;;;3.50;99.90;;;3.17;73.74;96364.59;5062345;28;20493;-61
2023/12/16 09:24:33;;;;;;;2.40;2.17;;;3.50;99.90;;;3.16;73.71;96355.13;5059786;28;20518;-60
2023/12/16 09:27:00;;;;;;;3.30;3.00;;;3.50;99.90;;;3.18;73.65;96357.66;5062045;28;20470;-60
2023/12/16 09:29:28;;;;;;;4.03;2.40;;;3.50;99.90;;;3.21;73.92;96363.59;5062921;28;20451;-60
2023/12/16 09:31:55;;;;;;;3.73;2.30;;;3.60;99.90;;;3.27;73.55;96359.94;5059510;28;20476;-61
2023/12/16 09:34:24;;;;;;;4.63;2.80;;;3.60;99.90;;;3.31;73.30;96356.28;5060994;28;20450;-61
2023/12/16 09:36:51;;;;;;;3.03;2.67;;;3.70;99.90;;;3.34;74.02;96353.56;5061900;28;20454;-60
2023/12/16 09:39:19;;;;;;;2.10;2.00;;;3.70;99.90;;;3.33;73.48;96353.63;5055819;28;20448;-62
2023/12/16 09:41:48;;;;;;;2.60;2.07;;;3.70;99.90;;;3.34;73.73;96352.72;5060739;28;20485;-61
2023/12/16 09:44:16;;;;;;;2.77;2.57;;;3.70;99.90;;;3.38;73.60;96347.34;5062226;28;20964;-60
2023/12/16 09:46:44;;;;;;;5.33;2.07;;;3.70;99.90;;;3.45;73.57;96349.72;5062287;28;20529;-61
2023/12/16 09:49:11;;;;;;;2.47;2.27;;;3.80;99.90;;;3.49;73.12;96352.13;5061793;28;20455;-60
2023/12/16 09:51:42;;;;;;;2.33;2.13;;;3.80;99.90;;;3.51;73.64;96350.31;5059292;28;20451;-62
2023/12/16 09:54:09;;;;;;;5.37;2.60;;;3.80;99.90;;;3.56;73.38;96355.34;5061585;28;20439;-60
2023/12/16 09:56:37;;;;;;;3.33;2.70;;;3.90;99.90;;;3.63;73.60;96358.56;5061959;28;20519;-61
2023/12/16 09:59:04;;;;;;;2.30;2.10;;;3.90;99.90;;;3.69;73.16;96350.50;5058887;28;20974;-60
2023/12/16 10:01:32;;;;;;;2.50;2.23;;;4.00;99.90;;;3.79;72.77;96354.41;5060020;28;20455;-60
2023/12/16 10:03:59;;;;;;;2.30;2.10;;;4.10;99.90;;;3.86;72.74;96355.03;5059121;28;20494;-60
2023/12/16 10:06:27;;;;;;;1.67;1.57;;;4.10;99.90;;;3.93;72.37;96361.66;5061921;28;20497;-60
2023/12/16 10:08:57;;;;;;;4.60;1.83;;;4.20;99.90;;;3.97;72.41;96358.03;5060514;28;20495;-60
2023/12/16 10:11:24;;;;;;;4.23;2.50;;;4.30;99.90;;;4.00;72.25;96351.84;5059152;28;21170;-60
2023/12/16 10:13:55;;;;;;;4.13;2.40;;;4.30;99.90;;;4.04;71.94;96356.88;5055258;28;20577;-61
2023/12/16 10:16:23;;;;;;;2.17;2.00;;;4.30;99.90;;;4.05;71.67;96347.31;5060098;28;20589;-61
2023/12/16 10:18:52;;;;;;;5.93;2.57;;;4.30;99.90;;;4.07;71.68;96350.69;5062132;28;20474;-60
2023/12/16 10:21:24;;;;;;;1.93;1.83;;;4.40;99.90;;;4.05;71.30;96347.31;5059620;28;20460;-61
2023/12/16 10:23:51;;;;;;;2.60;2.40;;;4.40;99.90;;;4.03;71.36;96355.19;5058847;28;20468;-59
2023/12/16 10:26:20;;;;;;;2.50;2.30;;;4.30;99.90;;;4.02;71.30;96344.84;5061547;28;21025;-60
2023/12/16 10:28:48;;;;;;;2.20;2.10;;;4.30;99.90;;;4.03;71.27;96351.72;5060221;28;20906;-61
2023/12/16 10:31:17;;;;;;;2.97;2.77;;;4.40;99.90;;;4.00;71.16;96344.91;5057980;28;20448;-60
2023/12/16 10:33:44;;;;;;;3.43;2.43;;;4.30;99.90;;;4.01;71.23;96345.75;5055734;28;20533;-61